sensor_id;sensor_type;location;lat;lon;timestamp;pressure;altitude;pressure_sealevel;temperature;humidity
6514;BME280;3290;47.716;9.070;2022-12-18T00:00:40;97951.75;;;-0.87;98.42
6514;BME280;3290;47.716;9.070;2022-12-18T00:03:06;97958.28;;;-0.83;98.23
6514;BME280;3290;47.716;9.070;2022-12-18T00:05:31;97967.50;;;-0.70;98.67
6514;BME280;3290;47.716;9.070;2022-12-18T00:07:56;97962.22;;;-0.79;99.02
6514;BME280;3290;47.716;9.070;2022-12-18T00:10:22;97961.84;;;-0.64;98.23
6514;BME280;3290;47.716;9.070;2022-12-18T00:12:47;97960.38;;;-0.88;98.07
6514;BME280;3290;47.716;9.070;2022-12-18T00:15:12;97958.75;;;-0.78;98.14
6514;BME280;3290;47.716;9.070;2022-12-18T00:17:38;97959.91;;;-0.71;98.91
6514;BME280;3290;47.716;9.070;2022-12-18T00:20:03;97971.34;;;-0.64;98.49
6514;BME280;3290;47.716;9.070;2022-12-18T00:22:29;97965.28;;;-0.74;98.53
6514;BME280;3290;47.716;9.070;2022-12-18T00:24:54;97958.25;;;-0.72;97.80
6514;BME280;3290;47.716;9.070;2022-12-18T00:27:20;97965.28;;;-0.74;98.36
6514;BME280;3290;47.716;9.070;2022-12-18T00:29:45;97975.78;;;-0.77;97.82
6514;BME280;3290;47.716;9.070;2022-12-18T00:32:10;97981.06;;;-0.68;97.77
6514;BME280;3290;47.716;9.070;2022-12-18T00:34:36;97978.94;;;-0.74;97.81
6514;BME280;3290;47.716;9.070;2022-12-18T00:37:01;97991.72;;;-0.83;98.10
6514;BME280;3290;47.716;9.070;2022-12-18T00:39:26;97987.38;;;-0.82;98.65
6514;BME280;3290;47.716;9.070;2022-12-18T00:41:52;97983.75;;;-0.80;97.98
6514;BME280;3290;47.716;9.070;2022-12-18T00:44:35;97976.84;;;-0.80;98.28
6514;BME280;3290;47.716;9.070;2022-12-18T00:47:01;97980.25;;;-0.90;98.04
6514;BME280;3290;47.716;9.070;2022-12-18T00:49:26;97973.00;;;-0.74;98.17
6514;BME280;3290;47.716;9.070;2022-12-18T00:51:55;97981.06;;;-0.79;97.94
6514;BME280;3290;47.716;9.070;2022-12-18T00:54:20;97972.63;;;-0.70;97.39
6514;BME280;3290;47.716;9.070;2022-12-18T00:56:45;97980.50;;;-0.82;97.70
6514;BME280;3290;47.716;9.070;2022-12-18T00:59:11;97986.53;;;-0.72;98.06
6514;BME280;3290;47.716;9.070;2022-12-18T01:01:36;97980.25;;;-0.68;98.14
6514;BME280;3290;47.716;9.070;2022-12-18T01:04:03;97998.44;;;-0.60;97.56
6514;BME280;3290;47.716;9.070;2022-12-18T01:06:28;97999.06;;;-0.68;98.13
6514;BME280;3290;47.716;9.070;2022-12-18T01:08:54;98003.25;;;-0.67;98.29
6514;BME280;3290;47.716;9.070;2022-12-18T01:11:20;98014.03;;;-0.73;98.23
6514;BME280;3290;47.716;9.070;2022-12-18T01:13:46;98005.13;;;-0.69;98.60
6514;BME280;3290;47.716;9.070;2022-12-18T01:16:13;97991.09;;;-0.65;98.29
6514;BME280;3290;47.716;9.070;2022-12-18T01:18:39;98002.78;;;-0.61;98.11
6514;BME280;3290;47.716;9.070;2022-12-18T01:21:08;98010.03;;;-0.66;98.53
6514;BME280;3290;47.716;9.070;2022-12-18T01:23:34;98011.44;;;-0.62;98.65
6514;BME280;3290;47.716;9.070;2022-12-18T01:26:12;98014.84;;;-0.61;98.06
6514;BME280;3290;47.716;9.070;2022-12-18T01:28:38;98011.09;;;-0.68;98.20
6514;BME280;3290;47.716;9.070;2022-12-18T01:33:39;98021.50;;;-0.81;98.80
6514;BME280;3290;47.716;9.070;2022-12-18T01:36:05;98017.72;;;-0.55;98.72
6514;BME280;3290;47.716;9.070;2022-12-18T01:38:30;98024.41;;;-0.63;98.78
6514;BME280;3290;47.716;9.070;2022-12-18T01:41:00;98035.16;;;-0.58;98.18
6514;BME280;3290;47.716;9.070;2022-12-18T01:46:09;98024.88;;;-0.58;98.80
6514;BME280;3290;47.716;9.070;2022-12-18T01:48:35;98029.66;;;-0.54;98.83
6514;BME280;3290;47.716;9.070;2022-12-18T01:51:01;98030.97;;;-0.81;99.43
6514;BME280;3290;47.716;9.070;2022-12-18T01:53:27;98028.41;;;-0.59;99.32
6514;BME280;3290;47.716;9.070;2022-12-18T01:55:55;98029.53;;;-0.63;99.60
6514;BME280;3290;47.716;9.070;2022-12-18T01:58:41;98027.22;;;-0.55;99.00
6514;BME280;3290;47.716;9.070;2022-12-18T02:01:09;98032.34;;;-0.55;98.48
6514;BME280;3290;47.716;9.070;2022-12-18T02:03:35;98034.22;;;-0.46;98.57
6514;BME280;3290;47.716;9.070;2022-12-18T02:08:46;98031.09;;;-0.82;100.00
6514;BME280;3290;47.716;9.070;2022-12-18T02:11:40;98030.25;;;-0.72;100.00
6514;BME280;3290;47.716;9.070;2022-12-18T02:14:14;98030.84;;;-0.69;100.00
6514;BME280;3290;47.716;9.070;2022-12-18T02:16:48;98035.66;;;-0.64;99.76
6514;BME280;3290;47.716;9.070;2022-12-18T02:22:24;98022.75;;;-0.53;99.73
6514;BME280;3290;47.716;9.070;2022-12-18T02:25:05;98015.63;;;-0.50;99.14
6514;BME280;3290;47.716;9.070;2022-12-18T02:27:33;98015.53;;;-0.59;99.79
6514;BME280;3290;47.716;9.070;2022-12-18T02:30:01;98028.41;;;-0.92;99.86
6514;BME280;3290;47.716;9.070;2022-12-18T02:32:32;98025.59;;;-0.78;99.59
6514;BME280;3290;47.716;9.070;2022-12-18T02:34:59;98022.91;;;-0.77;100.00
6514;BME280;3290;47.716;9.070;2022-12-18T02:37:28;98025.34;;;-0.64;99.93
6514;BME280;3290;47.716;9.070;2022-12-18T02:39:56;98025.47;;;-0.66;99.89
6514;BME280;3290;47.716;9.070;2022-12-18T02:42:24;98018.56;;;-0.65;99.08
6514;BME280;3290;47.716;9.070;2022-12-18T02:44:51;98016.47;;;-0.71;99.05
6514;BME280;3290;47.716;9.070;2022-12-18T02:47:22;98027.44;;;-0.58;99.67
6514;BME280;3290;47.716;9.070;2022-12-18T02:52:43;98036.13;;;-0.59;100.00
6514;BME280;3290;47.716;9.070;2022-12-18T02:57:58;98042.41;;;-0.52;100.00
6514;BME280;3290;47.716;9.070;2022-12-18T03:00:37;98036.56;;;-0.43;100.00
6514;BME280;3290;47.716;9.070;2022-12-18T03:03:16;98035.63;;;-0.53;100.00
6514;BME280;3290;47.716;9.070;2022-12-18T03:05:57;98040.47;;;-0.29;99.59
6514;BME280;3290;47.716;9.070;2022-12-18T03:08:27;98051.28;;;-0.56;100.00
6514;BME280;3290;47.716;9.070;2022-12-18T03:10:59;98043.34;;;-0.53;100.00
6514;BME280;3290;47.716;9.070;2022-12-18T03:13:36;98044.72;;;-0.49;100.00
6514;BME280;3290;47.716;9.070;2022-12-18T03:16:05;98040.78;;;-0.53;100.00
6514;BME280;3290;47.716;9.070;2022-12-18T03:18:35;98045.69;;;-0.72;100.00
6514;BME280;3290;47.716;9.070;2022-12-18T03:21:05;98047.06;;;-0.46;100.00
6514;BME280;3290;47.716;9.070;2022-12-18T03:23:36;98048.47;;;-0.42;100.00
6514;BME280;3290;47.716;9.070;2022-12-18T03:26:07;98038.88;;;-0.41;100.00
6514;BME280;3290;47.716;9.070;2022-12-18T03:28:38;98036.06;;;-0.38;100.00
6514;BME280;3290;47.716;9.070;2022-12-18T03:31:05;98035.72;;;-0.44;100.00
6514;BME280;3290;47.716;9.070;2022-12-18T03:33:46;98040.84;;;-0.44;100.00
6514;BME280;3290;47.716;9.070;2022-12-18T03:36:12;98032.72;;;-0.49;100.00
6514;BME280;3290;47.716;9.070;2022-12-18T03:38:37;98030.72;;;-0.45;100.00
6514;BME280;3290;47.716;9.070;2022-12-18T03:46:29;98044.25;;;-0.33;100.00
6514;BME280;3290;47.716;9.070;2022-12-18T03:49:02;98049.31;;;-0.42;100.00
6514;BME280;3290;47.716;9.070;2022-12-18T03:51:54;98051.50;;;-0.38;100.00
6514;BME280;3290;47.716;9.070;2022-12-18T03:54:23;98057.56;;;-0.39;100.00
6514;BME280;3290;47.716;9.070;2022-12-18T03:56:59;98057.72;;;-0.62;100.00
6514;BME280;3290;47.716;9.070;2022-12-18T03:59:27;98063.88;;;-0.32;100.00
6514;BME280;3290;47.716;9.070;2022-12-18T04:01:54;98060.38;;;-0.31;100.00
6514;BME280;3290;47.716;9.070;2022-12-18T04:04:23;98058.28;;;-0.37;100.00
6514;BME280;3290;47.716;9.070;2022-12-18T04:06:50;98065.06;;;-0.36;100.00
6514;BME280;3290;47.716;9.070;2022-12-18T04:09:17;98068.59;;;-0.37;100.00
6514;BME280;3290;47.716;9.070;2022-12-18T04:11:43;98063.53;;;-0.27;100.00
6514;BME280;3290;47.716;9.070;2022-12-18T04:14:09;98072.81;;;-0.57;100.00
6514;BME280;3290;47.716;9.070;2022-12-18T04:16:35;98079.00;;;-0.38;100.00
6514;BME280;3290;47.716;9.070;2022-12-18T04:19:00;98078.75;;;-0.24;100.00
6514;BME280;3290;47.716;9.070;2022-12-18T04:21:26;98075.56;;;-0.17;99.98
6514;BME280;3290;47.716;9.070;2022-12-18T04:23:51;98076.53;;;-0.40;100.00
6514;BME280;3290;47.716;9.070;2022-12-18T04:26:16;98073.16;;;-0.40;100.00
6514;BME280;3290;47.716;9.070;2022-12-18T04:28:42;98079.72;;;-0.47;100.00
6514;BME280;3290;47.716;9.070;2022-12-18T04:31:07;98076.56;;;-0.61;100.00
6514;BME280;3290;47.716;9.070;2022-12-18T04:33:33;98082.63;;;-0.51;100.00
6514;BME280;3290;47.716;9.070;2022-12-18T04:35:58;98087.09;;;-0.53;100.00
6514;BME280;3290;47.716;9.070;2022-12-18T04:38:24;98085.66;;;-0.46;100.00
6514;BME280;3290;47.716;9.070;2022-12-18T04:40:49;98082.97;;;-0.45;100.00
6514;BME280;3290;47.716;9.070;2022-12-18T04:43:14;98087.97;;;-0.22;99.98
6514;BME280;3290;47.716;9.070;2022-12-18T04:45:40;98090.22;;;-0.39;100.00
6514;BME280;3290;47.716;9.070;2022-12-18T04:48:05;98082.03;;;-0.33;100.00
6514;BME280;3290;47.716;9.070;2022-12-18T04:50:31;98092.31;;;-0.22;100.00
6514;BME280;3290;47.716;9.070;2022-12-18T04:52:56;98088.34;;;-0.37;100.00
6514;BME280;3290;47.716;9.070;2022-12-18T04:55:25;98082.97;;;-0.34;99.58
6514;BME280;3290;47.716;9.070;2022-12-18T04:57:51;98084.03;;;-0.37;100.00
6514;BME280;3290;47.716;9.070;2022-12-18T05:00:17;98092.78;;;-0.39;100.00
6514;BME280;3290;47.716;9.070;2022-12-18T05:02:42;98088.22;;;-0.36;100.00
6514;BME280;3290;47.716;9.070;2022-12-18T05:05:08;98092.53;;;-0.25;99.81
6514;BME280;3290;47.716;9.070;2022-12-18T05:07:33;98097.81;;;-0.38;100.00
6514;BME280;3290;47.716;9.070;2022-12-18T05:09:58;98096.88;;;-0.47;100.00
6514;BME280;3290;47.716;9.070;2022-12-18T05:12:24;98104.50;;;-0.46;100.00
6514;BME280;3290;47.716;9.070;2022-12-18T05:14:49;98093.53;;;-0.59;100.00
6514;BME280;3290;47.716;9.070;2022-12-18T05:17:15;98103.00;;;-0.48;100.00
6514;BME280;3290;47.716;9.070;2022-12-18T05:19:40;98098.56;;;-0.57;100.00
6514;BME280;3290;47.716;9.070;2022-12-18T05:22:09;98099.03;;;-0.52;100.00
6514;BME280;3290;47.716;9.070;2022-12-18T05:24:34;98101.72;;;-0.54;100.00
6514;BME280;3290;47.716;9.070;2022-12-18T05:27:00;98104.03;;;-0.40;100.00
6514;BME280;3290;47.716;9.070;2022-12-18T05:29:25;98102.38;;;-0.30;100.00
6514;BME280;3290;47.716;9.070;2022-12-18T05:31:50;98116.09;;;-0.51;100.00
6514;BME280;3290;47.716;9.070;2022-12-18T05:34:16;98115.84;;;-0.70;100.00
6514;BME280;3290;47.716;9.070;2022-12-18T05:36:41;98113.28;;;-0.59;100.00
6514;BME280;3290;47.716;9.070;2022-12-18T05:39:07;98121.44;;;-0.54;100.00
6514;BME280;3290;47.716;9.070;2022-12-18T05:41:32;98120.66;;;-0.77;100.00
6514;BME280;3290;47.716;9.070;2022-12-18T05:43:58;98123.78;;;-0.41;100.00
6514;BME280;3290;47.716;9.070;2022-12-18T05:46:24;98120.53;;;-0.64;100.00
6514;BME280;3290;47.716;9.070;2022-12-18T05:48:49;98116.56;;;-0.57;100.00
6514;BME280;3290;47.716;9.070;2022-12-18T05:51:17;98119.59;;;-0.63;100.00
6514;BME280;3290;47.716;9.070;2022-12-18T05:53:43;98120.97;;;-0.70;100.00
6514;BME280;3290;47.716;9.070;2022-12-18T05:56:14;98120.66;;;-0.66;100.00
6514;BME280;3290;47.716;9.070;2022-12-18T05:58:40;98117.47;;;-0.47;100.00
6514;BME280;3290;47.716;9.070;2022-12-18T06:03:35;98115.63;;;-0.45;100.00
6514;BME280;3290;47.716;9.070;2022-12-18T06:06:01;98117.75;;;-0.61;100.00
6514;BME280;3290;47.716;9.070;2022-12-18T06:08:27;98107.09;;;-0.57;100.00
6514;BME280;3290;47.716;9.070;2022-12-18T06:10:52;98111.41;;;-0.57;100.00
6514;BME280;3290;47.716;9.070;2022-12-18T06:13:19;98110.34;;;-0.44;100.00
6514;BME280;3290;47.716;9.070;2022-12-18T06:15:44;98110.91;;;-0.41;99.94
6514;BME280;3290;47.716;9.070;2022-12-18T06:18:09;98117.34;;;-0.35;100.00
6514;BME280;3290;47.716;9.070;2022-12-18T06:20:35;98117.72;;;-0.40;100.00
6514;BME280;3290;47.716;9.070;2022-12-18T06:23:02;98120.03;;;-0.47;100.00
6514;BME280;3290;47.716;9.070;2022-12-18T06:25:28;98115.84;;;-0.70;100.00
6514;BME280;3290;47.716;9.070;2022-12-18T06:27:53;98122.41;;;-0.55;100.00
6514;BME280;3290;47.716;9.070;2022-12-18T06:30:19;98121.94;;;-0.60;100.00
6514;BME280;3290;47.716;9.070;2022-12-18T06:32:45;98127.75;;;-0.47;100.00
6514;BME280;3290;47.716;9.070;2022-12-18T06:35:10;98130.13;;;-0.55;100.00
6514;BME280;3290;47.716;9.070;2022-12-18T06:37:35;98137.59;;;-0.41;100.00
6514;BME280;3290;47.716;9.070;2022-12-18T06:40:01;98140.66;;;-0.37;100.00
6514;BME280;3290;47.716;9.070;2022-12-18T06:42:26;98143.22;;;-0.26;100.00
6514;BME280;3290;47.716;9.070;2022-12-18T06:44:53;98146.97;;;-0.30;100.00
6514;BME280;3290;47.716;9.070;2022-12-18T06:47:18;98149.41;;;-0.39;100.00
6514;BME280;3290;47.716;9.070;2022-12-18T06:49:44;98154.34;;;-0.47;100.00
6514;BME280;3290;47.716;9.070;2022-12-18T06:52:09;98151.50;;;-0.22;100.00
6514;BME280;3290;47.716;9.070;2022-12-18T06:54:36;98157.13;;;-0.28;100.00
6514;BME280;3290;47.716;9.070;2022-12-18T06:57:01;98169.19;;;-0.29;100.00
6514;BME280;3290;47.716;9.070;2022-12-18T06:59:26;98166.16;;;-0.23;100.00
6514;BME280;3290;47.716;9.070;2022-12-18T07:01:52;98166.13;;;-0.12;99.50
6514;BME280;3290;47.716;9.070;2022-12-18T07:04:17;98167.41;;;-0.06;99.70
6514;BME280;3290;47.716;9.070;2022-12-18T07:06:43;98159.56;;;-0.16;100.00
6514;BME280;3290;47.716;9.070;2022-12-18T07:09:08;98172.22;;;-0.24;100.00
6514;BME280;3290;47.716;9.070;2022-12-18T07:11:33;98176.63;;;-0.04;100.00
6514;BME280;3290;47.716;9.070;2022-12-18T07:13:59;98183.66;;;-0.06;100.00
6514;BME280;3290;47.716;9.070;2022-12-18T07:16:25;98180.41;;;-0.08;100.00
6514;BME280;3290;47.716;9.070;2022-12-18T07:18:51;98192.56;;;0.01;100.00
6514;BME280;3290;47.716;9.070;2022-12-18T07:21:18;98189.41;;;-0.13;100.00
6514;BME280;3290;47.716;9.070;2022-12-18T07:23:44;98188.09;;;0.03;100.00
6514;BME280;3290;47.716;9.070;2022-12-18T07:26:14;98180.50;;;-0.09;100.00
6514;BME280;3290;47.716;9.070;2022-12-18T07:28:40;98190.81;;;-0.09;100.00
6514;BME280;3290;47.716;9.070;2022-12-18T07:31:11;98198.53;;;-0.09;100.00
6514;BME280;3290;47.716;9.070;2022-12-18T07:33:37;98191.88;;;-0.01;100.00
6514;BME280;3290;47.716;9.070;2022-12-18T07:36:04;98194.09;;;-0.29;100.00
6514;BME280;3290;47.716;9.070;2022-12-18T07:38:31;98202.41;;;-0.15;100.00
6514;BME280;3290;47.716;9.070;2022-12-18T07:41:04;98212.47;;;-0.44;100.00
6514;BME280;3290;47.716;9.070;2022-12-18T07:43:29;98202.63;;;-0.29;100.00
6514;BME280;3290;47.716;9.070;2022-12-18T07:45:55;98202.63;;;-0.18;100.00
6514;BME280;3290;47.716;9.070;2022-12-18T07:48:21;98203.34;;;-0.05;100.00
6514;BME280;3290;47.716;9.070;2022-12-18T07:50:46;98196.56;;;-0.17;100.00
6514;BME280;3290;47.716;9.070;2022-12-18T07:53:11;98195.13;;;0.01;100.00
6514;BME280;3290;47.716;9.070;2022-12-18T07:55:37;98196.75;;;0.13;100.00
6514;BME280;3290;47.716;9.070;2022-12-18T07:58:03;98197.34;;;-0.05;100.00
6514;BME280;3290;47.716;9.070;2022-12-18T08:00:29;98203.34;;;-0.05;100.00
6514;BME280;3290;47.716;9.070;2022-12-18T08:02:55;98206.34;;;0.22;99.46
6514;BME280;3290;47.716;9.070;2022-12-18T08:05:21;98210.34;;;0.15;99.36
6514;BME280;3290;47.716;9.070;2022-12-18T08:07:46;98215.41;;;0.05;99.26
6514;BME280;3290;47.716;9.070;2022-12-18T08:10:12;98217.13;;;0.16;98.45
6514;BME280;3290;47.716;9.070;2022-12-18T08:12:38;98217.94;;;0.16;97.09
6514;BME280;3290;47.716;9.070;2022-12-18T08:15:04;98222.16;;;0.06;97.20
6514;BME280;3290;47.716;9.070;2022-12-18T08:17:29;98224.50;;;0.09;97.24
6514;BME280;3290;47.716;9.070;2022-12-18T08:19:55;98223.22;;;0.04;97.04
6514;BME280;3290;47.716;9.070;2022-12-18T08:22:20;98221.47;;;-0.28;100.00
6514;BME280;3290;47.716;9.070;2022-12-18T08:24:45;98220.66;;;-0.29;100.00
6514;BME280;3290;47.716;9.070;2022-12-18T08:27:11;98222.72;;;0.32;100.00
6514;BME280;3290;47.716;9.070;2022-12-18T08:29:42;98225.31;;;0.10;99.17
6514;BME280;3290;47.716;9.070;2022-12-18T08:32:07;98220.03;;;0.64;100.00
6514;BME280;3290;47.716;9.070;2022-12-18T08:34:33;98226.81;;;0.34;98.24
6514;BME280;3290;47.716;9.070;2022-12-18T08:36:58;98223.97;;;0.48;97.81
6514;BME280;3290;47.716;9.070;2022-12-18T08:39:23;98220.88;;;0.12;98.23
6514;BME280;3290;47.716;9.070;2022-12-18T08:41:49;98219.47;;;0.08;98.57
6514;BME280;3290;47.716;9.070;2022-12-18T08:44:32;98231.88;;;0.03;98.08
6514;BME280;3290;47.716;9.070;2022-12-18T08:47:05;98239.13;;;-0.02;98.23
6514;BME280;3290;47.716;9.070;2022-12-18T08:49:30;98236.22;;;-0.08;98.65
6514;BME280;3290;47.716;9.070;2022-12-18T08:51:56;98250.84;;;-0.20;98.84
6514;BME280;3290;47.716;9.070;2022-12-18T08:54:23;98227.91;;;-0.01;98.72
6514;BME280;3290;47.716;9.070;2022-12-18T08:56:48;98225.81;;;-0.07;97.64
6514;BME280;3290;47.716;9.070;2022-12-18T08:59:18;98217.59;;;0.10;97.83
6514;BME280;3290;47.716;9.070;2022-12-18T09:01:44;98230.03;;;-0.06;98.60
6514;BME280;3290;47.716;9.070;2022-12-18T09:04:10;98230.81;;;0.27;96.97
6514;BME280;3290;47.716;9.070;2022-12-18T09:06:36;98222.72;;;0.21;97.28
6514;BME280;3290;47.716;9.070;2022-12-18T09:09:02;98224.41;;;0.11;96.64
6514;BME280;3290;47.716;9.070;2022-12-18T09:11:28;98218.03;;;0.26;96.20
6514;BME280;3290;47.716;9.070;2022-12-18T09:13:55;98217.81;;;0.29;96.19
6514;BME280;3290;47.716;9.070;2022-12-18T09:16:21;98216.28;;;0.68;95.07
6514;BME280;3290;47.716;9.070;2022-12-18T09:18:47;98213.13;;;0.23;96.93
6514;BME280;3290;47.716;9.070;2022-12-18T09:21:15;98208.22;;;0.20;97.67
6514;BME280;3290;47.716;9.070;2022-12-18T09:23:41;98204.72;;;-0.01;98.02
6514;BME280;3290;47.716;9.070;2022-12-18T09:26:07;98209.03;;;0.20;99.64
6514;BME280;3290;47.716;9.070;2022-12-18T09:28:33;98206.41;;;0.42;97.31
6514;BME280;3290;47.716;9.070;2022-12-18T09:30:58;98211.53;;;0.11;97.92
6514;BME280;3290;47.716;9.070;2022-12-18T09:33:24;98212.13;;;0.56;97.38
6514;BME280;3290;47.716;9.070;2022-12-18T09:35:49;98213.91;;;0.76;95.28
6514;BME280;3290;47.716;9.070;2022-12-18T09:38:17;98215.00;;;0.63;96.37
6514;BME280;3290;47.716;9.070;2022-12-18T09:40:51;98224.22;;;0.76;95.36
6514;BME280;3290;47.716;9.070;2022-12-18T09:43:24;98228.47;;;0.66;96.91
6514;BME280;3290;47.716;9.070;2022-12-18T09:46:00;98220.94;;;0.43;96.86
6514;BME280;3290;47.716;9.070;2022-12-18T09:48:38;98209.09;;;1.03;94.79
6514;BME280;3290;47.716;9.070;2022-12-18T09:51:15;98207.50;;;0.91;95.17
6514;BME280;3290;47.716;9.070;2022-12-18T09:53:44;98211.69;;;1.03;95.03
6514;BME280;3290;47.716;9.070;2022-12-18T09:56:16;98219.41;;;1.03;95.04
6514;BME280;3290;47.716;9.070;2022-12-18T09:58:47;98212.28;;;0.44;97.71
6514;BME280;3290;47.716;9.070;2022-12-18T10:01:18;98211.44;;;0.43;98.52
6514;BME280;3290;47.716;9.070;2022-12-18T10:03:45;98215.63;;;0.55;98.62
6514;BME280;3290;47.716;9.070;2022-12-18T10:06:22;98216.69;;;0.84;97.39
6514;BME280;3290;47.716;9.070;2022-12-18T10:11:34;98218.50;;;0.73;96.84
6514;BME280;3290;47.716;9.070;2022-12-18T10:14:07;98219.69;;;1.00;95.61
6514;BME280;3290;47.716;9.070;2022-12-18T10:17:02;98222.59;;;0.75;95.50
6514;BME280;3290;47.716;9.070;2022-12-18T10:27:41;98211.19;;;0.46;97.22
6514;BME280;3290;47.716;9.070;2022-12-18T10:30:20;98210.16;;;0.80;96.08
6514;BME280;3290;47.716;9.070;2022-12-18T10:32:46;98215.16;;;1.13;94.14
6514;BME280;3290;47.716;9.070;2022-12-18T10:35:19;98211.06;;;1.30;92.61
6514;BME280;3290;47.716;9.070;2022-12-18T10:38:20;98214.56;;;0.89;93.25
6514;BME280;3290;47.716;9.070;2022-12-18T10:41:03;98219.06;;;0.45;97.24
6514;BME280;3290;47.716;9.070;2022-12-18T10:43:33;98225.03;;;1.08;94.67
6514;BME280;3290;47.716;9.070;2022-12-18T10:51:29;98226.34;;;0.71;96.33
6514;BME280;3290;47.716;9.070;2022-12-18T10:54:15;98222.63;;;0.95;94.88
6514;BME280;3290;47.716;9.070;2022-12-18T10:56:42;98222.81;;;1.03;95.31
6514;BME280;3290;47.716;9.070;2022-12-18T10:59:09;98220.31;;;1.13;93.82
6514;BME280;3290;47.716;9.070;2022-12-18T11:01:53;98216.41;;;0.98;93.94
6514;BME280;3290;47.716;9.070;2022-12-18T11:04:25;98210.13;;;1.11;94.75
6514;BME280;3290;47.716;9.070;2022-12-18T11:07:05;98216.75;;;1.24;93.83
6514;BME280;3290;47.716;9.070;2022-12-18T11:09:34;98218.63;;;1.02;92.46
6514;BME280;3290;47.716;9.070;2022-12-18T11:12:17;98216.38;;;1.09;92.12
6514;BME280;3290;47.716;9.070;2022-12-18T11:14:46;98207.56;;;1.31;90.93
6514;BME280;3290;47.716;9.070;2022-12-18T11:17:29;98203.94;;;1.03;92.32
6514;BME280;3290;47.716;9.070;2022-12-18T11:19:58;98200.00;;;0.99;92.82
6514;BME280;3290;47.716;9.070;2022-12-18T11:22:29;98203.28;;;1.21;92.21
6514;BME280;3290;47.716;9.070;2022-12-18T11:24:59;98203.03;;;1.04;92.67
6514;BME280;3290;47.716;9.070;2022-12-18T11:27:26;98206.28;;;1.06;92.78
6514;BME280;3290;47.716;9.070;2022-12-18T11:29:52;98200.13;;;1.18;91.94
6514;BME280;3290;47.716;9.070;2022-12-18T11:34:46;98189.91;;;0.96;92.49
6514;BME280;3290;47.716;9.070;2022-12-18T11:37:15;98188.81;;;0.58;93.47
6514;BME280;3290;47.716;9.070;2022-12-18T11:39:56;98187.72;;;1.12;92.05
6514;BME280;3290;47.716;9.070;2022-12-18T11:45:27;98179.16;;;1.31;89.72
6514;BME280;3290;47.716;9.070;2022-12-18T11:48:12;98180.22;;;1.49;89.54
6514;BME280;3290;47.716;9.070;2022-12-18T11:50:52;98177.50;;;1.51;89.68
6514;BME280;3290;47.716;9.070;2022-12-18T11:53:19;98175.31;;;1.46;89.01
6514;BME280;3290;47.716;9.070;2022-12-18T11:56:00;98167.13;;;1.41;89.00
6514;BME280;3290;47.716;9.070;2022-12-18T11:58:37;98169.78;;;0.90;91.50
6514;BME280;3290;47.716;9.070;2022-12-18T12:25:04;98168.00;;;1.51;92.17
6514;BME280;3290;47.716;9.070;2022-12-18T12:27:48;98166.88;;;1.44;92.28
6514;BME280;3290;47.716;9.070;2022-12-18T12:30:21;98156.53;;;1.44;91.39
6514;BME280;3290;47.716;9.070;2022-12-18T12:40:30;98144.00;;;0.90;94.57
6514;BME280;3290;47.716;9.070;2022-12-18T12:43:05;98133.97;;;1.37;96.49
6514;BME280;3290;47.716;9.070;2022-12-18T12:45:49;98134.66;;;1.68;92.94
6514;BME280;3290;47.716;9.070;2022-12-18T12:48:31;98128.06;;;1.55;94.01
6514;BME280;3290;47.716;9.070;2022-12-18T12:51:22;98142.22;;;1.60;93.75
6514;BME280;3290;47.716;9.070;2022-12-18T12:53:46;98143.75;;;1.43;93.64
6514;BME280;3290;47.716;9.070;2022-12-18T12:56:15;98137.63;;;1.14;94.96
6514;BME280;3290;47.716;9.070;2022-12-18T13:09:11;98133.91;;;1.27;94.26
6514;BME280;3290;47.716;9.070;2022-12-18T13:11:44;98133.53;;;1.32;94.63
6514;BME280;3290;47.716;9.070;2022-12-18T13:14:37;98135.78;;;1.25;93.47
6514;BME280;3290;47.716;9.070;2022-12-18T13:24:59;98121.69;;;1.59;93.25
6514;BME280;3290;47.716;9.070;2022-12-18T13:35:41;98144.91;;;1.29;95.63
6514;BME280;3290;47.716;9.070;2022-12-18T13:40:57;98140.59;;;1.30;94.54
6514;BME280;3290;47.716;9.070;2022-12-18T13:43:35;98147.34;;;1.51;93.56
6514;BME280;3290;47.716;9.070;2022-12-18T13:46:16;98138.56;;;1.33;94.65
6514;BME280;3290;47.716;9.070;2022-12-18T13:51:35;98125.09;;;1.30;94.13
6514;BME280;3290;47.716;9.070;2022-12-18T13:54:05;98131.16;;;1.19;95.77
6514;BME280;3290;47.716;9.070;2022-12-18T13:56:44;98127.59;;;1.20;95.23
6514;BME280;3290;47.716;9.070;2022-12-18T13:59:13;98133.34;;;1.24;94.92
6514;BME280;3290;47.716;9.070;2022-12-18T14:01:56;98135.13;;;1.53;94.42
6514;BME280;3290;47.716;9.070;2022-12-18T14:04:26;98135.91;;;1.44;94.58
6514;BME280;3290;47.716;9.070;2022-12-18T14:07:04;98135.91;;;1.44;95.21
6514;BME280;3290;47.716;9.070;2022-12-18T14:09:35;98131.72;;;1.23;94.38
6514;BME280;3290;47.716;9.070;2022-12-18T14:12:01;98137.47;;;0.86;96.35
6514;BME280;3290;47.716;9.070;2022-12-18T14:14:48;98138.50;;;0.83;96.01
6514;BME280;3290;47.716;9.070;2022-12-18T14:17:15;98143.03;;;1.11;95.83
6514;BME280;3290;47.716;9.070;2022-12-18T14:19:43;98137.00;;;1.21;95.62
6514;BME280;3290;47.716;9.070;2022-12-18T14:22:17;98146.00;;;1.07;94.64
6514;BME280;3290;47.716;9.070;2022-12-18T14:24:44;98149.09;;;1.21;94.86
6514;BME280;3290;47.716;9.070;2022-12-18T14:27:24;98148.88;;;1.33;95.49
6514;BME280;3290;47.716;9.070;2022-12-18T14:29:50;98151.03;;;1.28;95.88
6514;BME280;3290;47.716;9.070;2022-12-18T14:32:17;98161.34;;;1.28;96.05
6514;BME280;3290;47.716;9.070;2022-12-18T14:34:53;98149.47;;;1.17;96.20
6514;BME280;3290;47.716;9.070;2022-12-18T14:37:24;98139.00;;;1.38;95.76
6514;BME280;3290;47.716;9.070;2022-12-18T14:40:00;98144.97;;;1.39;95.27
6514;BME280;3290;47.716;9.070;2022-12-18T14:42:27;98143.72;;;1.33;95.61
6514;BME280;3290;47.716;9.070;2022-12-18T14:48:00;98143.28;;;1.28;96.78
6514;BME280;3290;47.716;9.070;2022-12-18T14:50:31;98144.91;;;1.29;97.06
6514;BME280;3290;47.716;9.070;2022-12-18T14:52:56;98151.34;;;1.15;97.15
6514;BME280;3290;47.716;9.070;2022-12-18T14:55:21;98146.78;;;1.27;97.19
6514;BME280;3290;47.716;9.070;2022-12-18T14:57:51;98154.81;;;1.24;97.27
6514;BME280;3290;47.716;9.070;2022-12-18T15:00:23;98153.38;;;1.31;96.69
6514;BME280;3290;47.716;9.070;2022-12-18T15:02:54;98158.59;;;1.00;98.02
6514;BME280;3290;47.716;9.070;2022-12-18T15:05:28;98159.94;;;0.84;98.87
6514;BME280;3290;47.716;9.070;2022-12-18T15:07:55;98163.94;;;1.08;98.46
6514;BME280;3290;47.716;9.070;2022-12-18T15:21:09;98160.16;;;0.92;98.79
6514;BME280;3290;47.716;9.070;2022-12-18T15:23:38;98150.00;;;0.59;100.00
6514;BME280;3290;47.716;9.070;2022-12-18T15:26:13;98157.81;;;0.38;100.00
6514;BME280;3290;47.716;9.070;2022-12-18T15:28:55;98157.75;;;0.79;100.00
6514;BME280;3290;47.716;9.070;2022-12-18T15:31:24;98157.81;;;0.89;99.67
6514;BME280;3290;47.716;9.070;2022-12-18T15:36:18;98155.88;;;0.81;99.77
6514;BME280;3290;47.716;9.070;2022-12-18T15:38:48;98157.59;;;0.92;99.03